sensor_id;sensor_type;location;lat;lon;timestamp;pressure;altitude;pressure_sealevel;temperature;humidity
10948;BME280;5526;42.070;24.752;2023-12-14T00:00:45;98258.91;;;6.03;100.00
10948;BME280;5526;42.070;24.752;2023-12-14T00:03:12;98259.00;;;5.91;100.00
10948;BME280;5526;42.070;24.752;2023-12-14T00:05:39;98259.31;;;5.95;100.00
10948;BME280;5526;42.070;24.752;2023-12-14T00:08:07;98252.41;;;6.05;100.00
10948;BME280;5526;42.070;24.752;2023-12-14T00:10:34;98262.84;;;6.05;100.00
10948;BME280;5526;42.070;24.752;2023-12-14T00:13:01;98253.94;;;6.01;100.00
10948;BME280;5526;42.070;24.752;2023-12-14T00:15:30;98261.44;;;5.98;100.00
10948;BME280;5526;42.070;24.752;2023-12-14T00:17:57;98257.00;;;5.98;100.00
10948;BME280;5526;42.070;24.752;2023-12-14T00:20:24;98257.44;;;5.90;100.00
10948;BME280;5526;42.070;24.752;2023-12-14T00:22:51;98257.50;;;5.95;100.00
10948;BME280;5526;42.070;24.752;2023-12-14T00:25:19;98260.97;;;6.01;100.00
10948;BME280;5526;42.070;24.752;2023-12-14T00:27:46;98252.03;;;5.97;100.00
10948;BME280;5526;42.070;24.752;2023-12-14T00:30:14;98271.81;;;5.93;100.00
10948;BME280;5526;42.070;24.752;2023-12-14T00:32:41;98273.88;;;5.91;100.00
10948;BME280;5526;42.070;24.752;2023-12-14T00:35:08;98260.56;;;5.92;100.00
10948;BME280;5526;42.070;24.752;2023-12-14T00:37:35;98271.34;;;5.96;100.00
10948;BME280;5526;42.070;24.752;2023-12-14T00:40:02;98266.13;;;5.96;100.00
10948;BME280;5526;42.070;24.752;2023-12-14T00:42:30;98277.53;;;5.90;100.00
10948;BME280;5526;42.070;24.752;2023-12-14T00:44:57;98284.06;;;5.92;100.00
10948;BME280;5526;42.070;24.752;2023-12-14T00:47:24;98270.97;;;5.87;100.00
10948;BME280;5526;42.070;24.752;2023-12-14T00:49:51;98278.56;;;5.89;100.00
10948;BME280;5526;42.070;24.752;2023-12-14T00:52:19;98262.59;;;5.85;100.00
10948;BME280;5526;42.070;24.752;2023-12-14T00:54:46;98269.16;;;5.88;100.00
10948;BME280;5526;42.070;24.752;2023-12-14T00:57:13;98257.44;;;5.90;100.00
10948;BME280;5526;42.070;24.752;2023-12-14T00:59:41;98261.84;;;5.90;100.00
10948;BME280;5526;42.070;24.752;2023-12-14T01:02:08;98256.41;;;5.91;100.00
10948;BME280;5526;42.070;24.752;2023-12-14T01:04:35;98256.34;;;5.86;100.00
10948;BME280;5526;42.070;24.752;2023-12-14T01:07:03;98253.97;;;5.85;100.00
10948;BME280;5526;42.070;24.752;2023-12-14T01:09:30;98234.09;;;5.84;100.00
10948;BME280;5526;42.070;24.752;2023-12-14T01:11:57;98224.69;;;5.83;100.00
10948;BME280;5526;42.070;24.752;2023-12-14T01:14:24;98216.44;;;5.91;100.00
10948;BME280;5526;42.070;24.752;2023-12-14T01:16:52;98230.53;;;5.73;100.00
10948;BME280;5526;42.070;24.752;2023-12-14T01:19:19;98217.22;;;5.75;100.00
10948;BME280;5526;42.070;24.752;2023-12-14T01:21:46;98215.78;;;5.62;100.00
10948;BME280;5526;42.070;24.752;2023-12-14T01:24:13;98205.16;;;5.69;100.00
10948;BME280;5526;42.070;24.752;2023-12-14T01:26:41;98215.19;;;5.77;100.00
10948;BME280;5526;42.070;24.752;2023-12-14T01:29:08;98215.47;;;5.80;100.00
10948;BME280;5526;42.070;24.752;2023-12-14T01:31:36;98208.06;;;5.72;100.00
10948;BME280;5526;42.070;24.752;2023-12-14T01:34:05;98234.66;;;5.69;100.00
10948;BME280;5526;42.070;24.752;2023-12-14T01:36:32;98215.38;;;5.70;100.00
10948;BME280;5526;42.070;24.752;2023-12-14T01:38:59;98215.38;;;5.70;100.00
10948;BME280;5526;42.070;24.752;2023-12-14T01:41:26;98224.19;;;5.69;100.00
10948;BME280;5526;42.070;24.752;2023-12-14T01:43:53;98206.50;;;5.71;100.00
10948;BME280;5526;42.070;24.752;2023-12-14T01:46:20;98235.44;;;5.70;100.00
10948;BME280;5526;42.070;24.752;2023-12-14T01:48:47;98225.25;;;5.68;100.00
10948;BME280;5526;42.070;24.752;2023-12-14T01:51:15;98230.16;;;5.65;100.00
10948;BME280;5526;42.070;24.752;2023-12-14T01:53:42;98231.66;;;5.61;100.00
10948;BME280;5526;42.070;24.752;2023-12-14T01:56:09;98190.41;;;5.41;100.00
10948;BME280;5526;42.070;24.752;2023-12-14T01:58:37;98227.78;;;5.63;100.00
10948;BME280;5526;42.070;24.752;2023-12-14T02:01:08;98230.63;;;5.62;100.00
10948;BME280;5526;42.070;24.752;2023-12-14T02:03:44;98218.56;;;5.56;100.00
10948;BME280;5526;42.070;24.752;2023-12-14T02:06:11;98222.81;;;5.62;100.00
10948;BME280;5526;42.070;24.752;2023-12-14T02:08:40;98222.97;;;5.55;100.00
10948;BME280;5526;42.070;24.752;2023-12-14T02:11:07;98200.94;;;5.46;100.00
10948;BME280;5526;42.070;24.752;2023-12-14T02:13:34;98221.53;;;5.64;100.00
10948;BME280;5526;42.070;24.752;2023-12-14T02:16:01;98219.72;;;5.65;100.00
10948;BME280;5526;42.070;24.752;2023-12-14T02:18:29;98214.03;;;5.68;100.00
10948;BME280;5526;42.070;24.752;2023-12-14T02:20:56;98212.59;;;5.60;100.00
10948;BME280;5526;42.070;24.752;2023-12-14T02:23:24;98206.97;;;5.68;100.00
10948;BME280;5526;42.070;24.752;2023-12-14T02:25:51;98204.13;;;5.70;100.00
10948;BME280;5526;42.070;24.752;2023-12-14T02:28:18;98210.47;;;5.57;100.00
10948;BME280;5526;42.070;24.752;2023-12-14T02:30:45;98201.94;;;5.62;100.00
10948;BME280;5526;42.070;24.752;2023-12-14T02:33:12;98202.78;;;5.67;100.00
10948;BME280;5526;42.070;24.752;2023-12-14T02:35:39;98205.56;;;5.61;100.00
10948;BME280;5526;42.070;24.752;2023-12-14T02:38:06;98213.34;;;5.56;100.00
10948;BME280;5526;42.070;24.752;2023-12-14T02:40:35;98210.56;;;5.62;100.00
10948;BME280;5526;42.070;24.752;2023-12-14T02:43:02;98203.50;;;5.63;100.00
10948;BME280;5526;42.070;24.752;2023-12-14T02:45:29;98211.94;;;5.70;100.00
10948;BME280;5526;42.070;24.752;2023-12-14T02:47:56;98202.50;;;5.64;100.00
10948;BME280;5526;42.070;24.752;2023-12-14T02:50:23;98213.00;;;5.52;100.00
10948;BME280;5526;42.070;24.752;2023-12-14T02:52:50;98214.06;;;5.51;100.00
10948;BME280;5526;42.070;24.752;2023-12-14T02:55:17;98217.13;;;5.48;100.00
10948;BME280;5526;42.070;24.752;2023-12-14T02:57:46;98217.13;;;5.48;100.00
10948;BME280;5526;42.070;24.752;2023-12-14T03:00:13;98212.25;;;5.35;100.00
10948;BME280;5526;42.070;24.752;2023-12-14T03:02:41;98198.34;;;5.46;100.00
10948;BME280;5526;42.070;24.752;2023-12-14T03:05:08;98215.91;;;5.34;100.00
10948;BME280;5526;42.070;24.752;2023-12-14T03:07:35;98224.97;;;5.32;100.00
10948;BME280;5526;42.070;24.752;2023-12-14T03:10:03;98212.81;;;5.21;100.00
10948;BME280;5526;42.070;24.752;2023-12-14T03:12:30;98220.16;;;5.24;100.00
10948;BME280;5526;42.070;24.752;2023-12-14T03:14:59;98210.13;;;5.32;100.00
10948;BME280;5526;42.070;24.752;2023-12-14T03:17:26;98202.91;;;5.39;100.00
10948;BME280;5526;42.070;24.752;2023-12-14T03:19:53;98227.28;;;5.45;100.00
10948;BME280;5526;42.070;24.752;2023-12-14T03:22:20;98208.84;;;5.51;100.00
10948;BME280;5526;42.070;24.752;2023-12-14T03:24:47;98208.84;;;5.51;100.00
10948;BME280;5526;42.070;24.752;2023-12-14T03:27:14;98207.31;;;5.55;100.00
10948;BME280;5526;42.070;24.752;2023-12-14T03:29:41;98206.34;;;5.61;100.00
10948;BME280;5526;42.070;24.752;2023-12-14T03:32:09;98217.13;;;5.65;100.00
10948;BME280;5526;42.070;24.752;2023-12-14T03:34:36;98225.19;;;5.47;100.00
10948;BME280;5526;42.070;24.752;2023-12-14T03:37:04;98204.03;;;5.43;100.00
10948;BME280;5526;42.070;24.752;2023-12-14T03:39:31;98208.91;;;5.56;100.00
10948;BME280;5526;42.070;24.752;2023-12-14T03:41:58;98219.75;;;5.48;100.00
10948;BME280;5526;42.070;24.752;2023-12-14T03:44:25;98209.59;;;5.52;100.00
10948;BME280;5526;42.070;24.752;2023-12-14T03:46:52;98209.94;;;5.55;100.00
10948;BME280;5526;42.070;24.752;2023-12-14T03:49:21;98208.41;;;5.59;100.00
10948;BME280;5526;42.070;24.752;2023-12-14T03:51:48;98208.41;;;5.59;100.00
10948;BME280;5526;42.070;24.752;2023-12-14T03:54:15;98210.91;;;5.71;100.00
10948;BME280;5526;42.070;24.752;2023-12-14T03:56:42;98199.81;;;5.80;100.00
10948;BME280;5526;42.070;24.752;2023-12-14T03:59:09;98192.63;;;5.71;100.00
10948;BME280;5526;42.070;24.752;2023-12-14T04:01:36;98203.47;;;5.79;100.00
10948;BME280;5526;42.070;24.752;2023-12-14T04:04:05;98205.88;;;5.81;100.00
10948;BME280;5526;42.070;24.752;2023-12-14T04:06:33;98196.34;;;5.75;100.00
10948;BME280;5526;42.070;24.752;2023-12-14T04:09:01;98202.00;;;5.67;100.00
10948;BME280;5526;42.070;24.752;2023-12-14T04:11:28;98207.38;;;5.60;100.00
10948;BME280;5526;42.070;24.752;2023-12-14T04:13:55;98180.81;;;5.63;100.00
10948;BME280;5526;42.070;24.752;2023-12-14T04:16:22;98187.59;;;5.64;100.00
10948;BME280;5526;42.070;24.752;2023-12-14T04:18:49;98189.97;;;5.66;100.00
10948;BME280;5526;42.070;24.752;2023-12-14T04:21:16;98186.56;;;5.65;100.00
10948;BME280;5526;42.070;24.752;2023-12-14T04:23:45;98183.78;;;5.50;100.00
10948;BME280;5526;42.070;24.752;2023-12-14T04:26:12;98185.34;;;5.51;100.00
10948;BME280;5526;42.070;24.752;2023-12-14T04:28:40;98201.41;;;5.43;100.00
10948;BME280;5526;42.070;24.752;2023-12-14T04:31:09;98215.81;;;5.29;100.00
10948;BME280;5526;42.070;24.752;2023-12-14T04:33:37;98208.47;;;5.10;100.00
10948;BME280;5526;42.070;24.752;2023-12-14T04:36:04;98206.88;;;5.09;100.00
10948;BME280;5526;42.070;24.752;2023-12-14T04:38:31;98213.06;;;5.19;100.00
10948;BME280;5526;42.070;24.752;2023-12-14T04:41:00;98215.44;;;5.21;100.00
10948;BME280;5526;42.070;24.752;2023-12-14T04:43:27;98217.16;;;5.15;100.00
10948;BME280;5526;42.070;24.752;2023-12-14T04:45:56;98221.50;;;5.26;100.00
10948;BME280;5526;42.070;24.752;2023-12-14T04:48:23;98203.56;;;5.30;100.00
10948;BME280;5526;42.070;24.752;2023-12-14T04:50:50;98219.63;;;5.22;100.00
10948;BME280;5526;42.070;24.752;2023-12-14T04:53:16;98197.78;;;5.28;100.00
10948;BME280;5526;42.070;24.752;2023-12-14T04:55:44;98211.06;;;5.26;100.00
10948;BME280;5526;42.070;24.752;2023-12-14T04:58:12;98197.88;;;5.33;100.00
10948;BME280;5526;42.070;24.752;2023-12-14T05:00:39;98196.59;;;5.35;100.00
10948;BME280;5526;42.070;24.752;2023-12-14T05:03:06;98203.31;;;5.15;100.00
10948;BME280;5526;42.070;24.752;2023-12-14T05:05:33;98197.72;;;5.23;100.00
10948;BME280;5526;42.070;24.752;2023-12-14T05:08:00;98208.44;;;5.26;100.00
10948;BME280;5526;42.070;24.752;2023-12-14T05:10:27;98202.53;;;5.31;100.00
10948;BME280;5526;42.070;24.752;2023-12-14T05:12:54;98198.00;;;5.26;100.00
10948;BME280;5526;42.070;24.752;2023-12-14T05:15:22;98181.91;;;5.29;100.00
10948;BME280;5526;42.070;24.752;2023-12-14T05:17:49;98181.44;;;5.32;100.00
10948;BME280;5526;42.070;24.752;2023-12-14T05:20:17;98194.47;;;5.32;100.00
10948;BME280;5526;42.070;24.752;2023-12-14T05:22:45;98186.69;;;5.37;100.00
10948;BME280;5526;42.070;24.752;2023-12-14T05:25:12;98190.91;;;5.38;100.00
10948;BME280;5526;42.070;24.752;2023-12-14T05:27:40;98176.59;;;5.41;100.00
10948;BME280;5526;42.070;24.752;2023-12-14T05:30:08;98201.50;;;5.32;100.00
10948;BME280;5526;42.070;24.752;2023-12-14T05:32:36;98188.16;;;5.28;100.00
10948;BME280;5526;42.070;24.752;2023-12-14T05:35:04;98191.38;;;5.35;100.00
10948;BME280;5526;42.070;24.752;2023-12-14T05:37:31;98194.16;;;5.29;100.00
10948;BME280;5526;42.070;24.752;2023-12-14T05:39:58;98200.72;;;5.31;100.00
10948;BME280;5526;42.070;24.752;2023-12-14T05:42:25;98221.59;;;5.31;100.00
10948;BME280;5526;42.070;24.752;2023-12-14T05:44:52;98221.25;;;5.28;100.00
10948;BME280;5526;42.070;24.752;2023-12-14T05:47:19;98225.47;;;5.29;100.00
10948;BME280;5526;42.070;24.752;2023-12-14T05:49:48;98224.13;;;5.10;100.00
10948;BME280;5526;42.070;24.752;2023-12-14T05:52:15;98210.69;;;5.18;100.00
10948;BME280;5526;42.070;24.752;2023-12-14T05:54:42;98221.88;;;5.18;100.00
10948;BME280;5526;42.070;24.752;2023-12-14T05:57:09;98213.38;;;5.23;100.00
10948;BME280;5526;42.070;24.752;2023-12-14T05:59:38;98207.97;;;5.29;100.00
10948;BME280;5526;42.070;24.752;2023-12-14T06:02:05;98196.28;;;5.32;100.00
10948;BME280;5526;42.070;24.752;2023-12-14T06:04:33;98197.38;;;5.36;100.00
10948;BME280;5526;42.070;24.752;2023-12-14T06:07:02;98207.34;;;5.39;100.00
10948;BME280;5526;42.070;24.752;2023-12-14T06:09:29;98216.34;;;5.48;100.00
10948;BME280;5526;42.070;24.752;2023-12-14T06:11:59;98207.84;;;5.57;100.00
10948;BME280;5526;42.070;24.752;2023-12-14T06:14:27;98219.66;;;5.60;100.00
10948;BME280;5526;42.070;24.752;2023-12-14T06:16:54;98222.00;;;5.61;100.00
10948;BME280;5526;42.070;24.752;2023-12-14T06:19:22;98225.25;;;5.52;100.00
10948;BME280;5526;42.070;24.752;2023-12-14T06:21:49;98239.81;;;5.48;100.00
10948;BME280;5526;42.070;24.752;2023-12-14T06:24:17;98227.50;;;5.43;100.00
10948;BME280;5526;42.070;24.752;2023-12-14T06:26:46;98217.59;;;5.45;100.00
10948;BME280;5526;42.070;24.752;2023-12-14T06:29:13;98225.06;;;5.37;100.00
10948;BME280;5526;42.070;24.752;2023-12-14T06:31:40;98213.44;;;5.44;100.00
10948;BME280;5526;42.070;24.752;2023-12-14T06:34:07;98218.16;;;5.47;100.00
10948;BME280;5526;42.070;24.752;2023-12-14T06:36:35;98237.06;;;5.54;100.00
10948;BME280;5526;42.070;24.752;2023-12-14T06:39:02;98231.91;;;5.59;100.00
10948;BME280;5526;42.070;24.752;2023-12-14T06:41:31;98234.75;;;5.58;100.00
10948;BME280;5526;42.070;24.752;2023-12-14T06:43:59;98235.22;;;5.55;100.00
10948;BME280;5526;42.070;24.752;2023-12-14T06:46:26;98241.78;;;5.57;100.00
10948;BME280;5526;42.070;24.752;2023-12-14T06:48:53;98223.44;;;5.69;100.00
10948;BME280;5526;42.070;24.752;2023-12-14T06:51:21;98237.50;;;5.84;100.00
10948;BME280;5526;42.070;24.752;2023-12-14T06:53:48;98230.03;;;5.93;100.00
10948;BME280;5526;42.070;24.752;2023-12-14T06:56:15;98241.81;;;5.95;100.00
10948;BME280;5526;42.070;24.752;2023-12-14T06:58:44;98227.31;;;6.04;100.00
10948;BME280;5526;42.070;24.752;2023-12-14T07:01:15;98236.78;;;6.10;100.00
10948;BME280;5526;42.070;24.752;2023-12-14T07:03:43;98220.88;;;6.12;100.00
10948;BME280;5526;42.070;24.752;2023-12-14T07:06:12;98238.50;;;6.00;100.00
10948;BME280;5526;42.070;24.752;2023-12-14T07:08:40;98235.50;;;5.91;100.00
10948;BME280;5526;42.070;24.752;2023-12-14T07:11:07;98227.66;;;5.91;100.00
10948;BME280;5526;42.070;24.752;2023-12-14T07:13:34;98235.66;;;6.01;100.00
10948;BME280;5526;42.070;24.752;2023-12-14T07:16:05;98223.78;;;6.15;100.00
10948;BME280;5526;42.070;24.752;2023-12-14T07:18:33;98207.25;;;6.31;100.00
10948;BME280;5526;42.070;24.752;2023-12-14T07:21:01;98210.19;;;6.35;100.00
10948;BME280;5526;42.070;24.752;2023-12-14T07:23:28;98232.72;;;5.98;100.00
10948;BME280;5526;42.070;24.752;2023-12-14T07:25:55;98221.44;;;5.76;100.00
10948;BME280;5526;42.070;24.752;2023-12-14T07:28:22;98243.34;;;5.91;100.00
10948;BME280;5526;42.070;24.752;2023-12-14T07:30:50;98246.13;;;5.85;100.00
10948;BME280;5526;42.070;24.752;2023-12-14T07:33:18;98232.59;;;5.71;100.00
10948;BME280;5526;42.070;24.752;2023-12-14T07:35:45;98235.84;;;5.78;100.00
10948;BME280;5526;42.070;24.752;2023-12-14T07:38:13;98249.34;;;5.75;100.00
10948;BME280;5526;42.070;24.752;2023-12-14T07:40:40;98233.81;;;6.02;100.00
10948;BME280;5526;42.070;24.752;2023-12-14T07:43:08;98251.97;;;6.13;100.00
10948;BME280;5526;42.070;24.752;2023-12-14T07:45:35;98253.13;;;6.22;100.00
10948;BME280;5526;42.070;24.752;2023-12-14T07:48:02;98238.97;;;6.40;100.00
10948;BME280;5526;42.070;24.752;2023-12-14T07:50:32;98258.50;;;6.59;100.00
10948;BME280;5526;42.070;24.752;2023-12-14T07:52:59;98257.78;;;6.63;100.00
10948;BME280;5526;42.070;24.752;2023-12-14T07:55:26;98252.38;;;6.70;100.00
10948;BME280;5526;42.070;24.752;2023-12-14T07:57:53;98261.78;;;6.71;100.00
10948;BME280;5526;42.070;24.752;2023-12-14T08:00:20;98256.72;;;6.86;100.00
10948;BME280;5526;42.070;24.752;2023-12-14T08:02:47;98272.59;;;6.79;100.00
10948;BME280;5526;42.070;24.752;2023-12-14T08:05:14;98271.78;;;6.52;100.00
10948;BME280;5526;42.070;24.752;2023-12-14T08:07:43;98270.06;;;6.63;100.00
10948;BME280;5526;42.070;24.752;2023-12-14T08:10:10;98263.09;;;6.47;100.00
10948;BME280;5526;42.070;24.752;2023-12-14T08:12:37;98263.56;;;6.44;100.00
10948;BME280;5526;42.070;24.752;2023-12-14T08:15:05;98255.09;;;6.58;100.00
10948;BME280;5526;42.070;24.752;2023-12-14T08:17:33;98247.47;;;6.78;100.00
10948;BME280;5526;42.070;24.752;2023-12-14T08:20:00;98253.41;;;6.95;100.00
10948;BME280;5526;42.070;24.752;2023-12-14T08:22:30;98268.44;;;7.10;100.00
10948;BME280;5526;42.070;24.752;2023-12-14T08:24:58;98259.66;;;7.26;100.00
10948;BME280;5526;42.070;24.752;2023-12-14T08:27:25;98248.16;;;7.27;100.00
10948;BME280;5526;42.070;24.752;2023-12-14T08:29:52;98248.75;;;7.34;100.00
10948;BME280;5526;42.070;24.752;2023-12-14T08:32:19;98248.13;;;8.00;100.00
10948;BME280;5526;42.070;24.752;2023-12-14T08:34:46;98241.50;;;7.46;100.00
10948;BME280;5526;42.070;24.752;2023-12-14T08:37:14;98241.97;;;7.38;100.00
10948;BME280;5526;42.070;24.752;2023-12-14T08:39:41;98247.56;;;7.20;100.00
10948;BME280;5526;42.070;24.752;2023-12-14T08:42:09;98257.59;;;7.28;100.00
10948;BME280;5526;42.070;24.752;2023-12-14T08:44:38;98259.69;;;7.31;100.00
10948;BME280;5526;42.070;24.752;2023-12-14T08:47:04;98274.31;;;7.27;100.00
10948;BME280;5526;42.070;24.752;2023-12-14T08:49:32;98270.41;;;8.07;100.00
10948;BME280;5526;42.070;24.752;2023-12-14T08:51:59;98277.28;;;7.72;100.00
10948;BME280;5526;42.070;24.752;2023-12-14T08:54:26;98273.97;;;7.50;100.00
10948;BME280;5526;42.070;24.752;2023-12-14T08:56:53;98284.53;;;7.28;100.00
10948;BME280;5526;42.070;24.752;2023-12-14T08:59:21;98280.16;;;7.34;100.00
10948;BME280;5526;42.070;24.752;2023-12-14T09:01:48;98269.84;;;7.59;100.00
10948;BME280;5526;42.070;24.752;2023-12-14T09:04:15;98254.03;;;7.80;100.00
10948;BME280;5526;42.070;24.752;2023-12-14T09:06:43;98274.69;;;7.72;100.00
10948;BME280;5526;42.070;24.752;2023-12-14T09:09:11;98264.09;;;7.57;100.00
10948;BME280;5526;42.070;24.752;2023-12-14T09:11:38;98265.03;;;7.77;100.00
10948;BME280;5526;42.070;24.752;2023-12-14T09:14:06;98258.19;;;7.76;100.00
10948;BME280;5526;42.070;24.752;2023-12-14T09:16:34;98248.34;;;7.93;100.00
10948;BME280;5526;42.070;24.752;2023-12-14T09:19:01;98251.16;;;8.28;100.00
10948;BME280;5526;42.070;24.752;2023-12-14T09:21:28;98242.03;;;8.46;100.00
10948;BME280;5526;42.070;24.752;2023-12-14T09:23:55;98241.25;;;8.50;100.00
10948;BME280;5526;42.070;24.752;2023-12-14T09:26:23;98242.34;;;8.64;100.00
10948;BME280;5526;42.070;24.752;2023-12-14T09:28:50;98218.78;;;8.84;100.00
10948;BME280;5526;42.070;24.752;2023-12-14T09:31:17;98232.63;;;9.90;100.00
10948;BME280;5526;42.070;24.752;2023-12-14T09:33:46;98224.03;;;9.65;100.00
10948;BME280;5526;42.070;24.752;2023-12-14T09:36:13;98225.31;;;10.46;100.00
10948;BME280;5526;42.070;24.752;2023-12-14T09:38:40;98221.28;;;9.95;100.00
10948;BME280;5526;42.070;24.752;2023-12-14T09:41:07;98212.97;;;9.63;100.00
10948;BME280;5526;42.070;24.752;2023-12-14T09:43:34;98203.25;;;9.68;100.00
10948;BME280;5526;42.070;24.752;2023-12-14T09:46:02;98210.34;;;9.53;100.00
10948;BME280;5526;42.070;24.752;2023-12-14T09:48:29;98209.28;;;9.64;100.00
10948;BME280;5526;42.070;24.752;2023-12-14T09:50:59;98217.47;;;9.47;100.00
10948;BME280;5526;42.070;24.752;2023-12-14T09:53:26;98203.06;;;9.30;100.00
10948;BME280;5526;42.070;24.752;2023-12-14T09:55:53;98198.28;;;9.47;100.00
10948;BME280;5526;42.070;24.752;2023-12-14T09:58:21;98199.63;;;9.44;100.00
10948;BME280;5526;42.070;24.752;2023-12-14T10:00:48;98223.75;;;9.61;100.00
10948;BME280;5526;42.070;24.752;2023-12-14T10:03:21;98202.72;;;9.66;100.00
10948;BME280;5526;42.070;24.752;2023-12-14T10:05:48;98207.16;;;9.81;100.00
10948;BME280;5526;42.070;24.752;2023-12-14T10:08:17;98204.03;;;10.86;100.00
10948;BME280;5526;42.070;24.752;2023-12-14T10:10:44;98198.53;;;10.44;100.00
10948;BME280;5526;42.070;24.752;2023-12-14T10:13:11;98193.38;;;10.19;100.00
10948;BME280;5526;42.070;24.752;2023-12-14T10:15:42;98196.16;;;10.42;100.00
10948;BME280;5526;42.070;24.752;2023-12-14T10:18:09;98179.81;;;10.50;100.00
10948;BME280;5526;42.070;24.752;2023-12-14T10:20:36;98191.00;;;10.66;100.00
10948;BME280;5526;42.070;24.752;2023-12-14T10:23:05;98178.28;;;10.83;100.00
10948;BME280;5526;42.070;24.752;2023-12-14T10:25:35;98191.34;;;10.93;100.00
10948;BME280;5526;42.070;24.752;2023-12-14T10:28:03;98175.38;;;11.18;100.00
10948;BME280;5526;42.070;24.752;2023-12-14T10:30:30;98166.44;;;11.14;100.00
10948;BME280;5526;42.070;24.752;2023-12-14T10:32:57;98157.88;;;11.27;100.00
10948;BME280;5526;42.070;24.752;2023-12-14T10:35:24;98171.47;;;11.39;100.00
10948;BME280;5526;42.070;24.752;2023-12-14T10:37:52;98165.38;;;11.43;100.00
10948;BME280;5526;42.070;24.752;2023-12-14T10:40:20;98154.72;;;11.53;100.00
10948;BME280;5526;42.070;24.752;2023-12-14T10:42:49;98149.47;;;11.25;100.00
10948;BME280;5526;42.070;24.752;2023-12-14T10:45:17;98152.88;;;10.97;100.00
10948;BME280;5526;42.070;24.752;2023-12-14T10:47:46;98161.25;;;11.32;100.00
10948;BME280;5526;42.070;24.752;2023-12-14T10:50:14;98147.94;;;11.47;100.00
10948;BME280;5526;42.070;24.752;2023-12-14T10:52:42;98159.94;;;11.63;100.00
10948;BME280;5526;42.070;24.752;2023-12-14T10:55:16;98156.22;;;11.88;100.00
10948;BME280;5526;42.070;24.752;2023-12-14T10:57:45;98166.00;;;12.06;100.00
10948;BME280;5526;42.070;24.752;2023-12-14T11:00:16;98169.84;;;11.95;100.00
10948;BME280;5526;42.070;24.752;2023-12-14T11:02:46;98166.28;;;11.62;100.00
10948;BME280;5526;42.070;24.752;2023-12-14T11:05:14;98158.03;;;11.40;100.00
10948;BME280;5526;42.070;24.752;2023-12-14T11:07:46;98150.81;;;10.94;100.00
10948;BME280;5526;42.070;24.752;2023-12-14T11:10:14;98151.31;;;10.96;100.00
10948;BME280;5526;42.070;24.752;2023-12-14T11:12:59;98155.84;;;10.52;100.00
10948;BME280;5526;42.070;24.752;2023-12-14T11:15:29;98155.22;;;10.65;100.00
10948;BME280;5526;42.070;24.752;2023-12-14T11:18:23;98149.47;;;10.63;100.00
10948;BME280;5526;42.070;24.752;2023-12-14T11:20:53;98140.75;;;10.67;100.00
10948;BME280;5526;42.070;24.752;2023-12-14T11:23:29;98162.84;;;10.66;100.00
10948;BME280;5526;42.070;24.752;2023-12-14T11:25:58;98148.63;;;10.72;100.00
10948;BME280;5526;42.070;24.752;2023-12-14T11:28:29;98141.22;;;10.74;100.00
10948;BME280;5526;42.070;24.752;2023-12-14T11:30:58;98146.28;;;10.66;100.00
10948;BME280;5526;42.070;24.752;2023-12-14T11:33:25;98144.66;;;10.70;100.00
10948;BME280;5526;42.070;24.752;2023-12-14T11:35:54;98149.50;;;10.58;100.00
10948;BME280;5526;42.070;24.752;2023-12-14T11:38:22;98131.88;;;10.58;100.00
10948;BME280;5526;42.070;24.752;2023-12-14T11:40:50;98145.50;;;10.65;100.00
10948;BME280;5526;42.070;24.752;2023-12-14T11:43:17;98131.38;;;10.90;100.00
10948;BME280;5526;42.070;24.752;2023-12-14T11:45:46;98136.44;;;10.81;100.00
10948;BME280;5526;42.070;24.752;2023-12-14T11:48:14;98134.56;;;10.82;100.00
10948;BME280;5526;42.070;24.752;2023-12-14T11:50:43;98139.63;;;10.78;100.00
10948;BME280;5526;42.070;24.752;2023-12-14T11:53:10;98134.63;;;10.77;100.00
10948;BME280;5526;42.070;24.752;2023-12-14T11:55:39;98135.22;;;10.69;100.00
10948;BME280;5526;42.070;24.752;2023-12-14T11:58:07;98125.91;;;10.43;100.00
10948;BME280;5526;42.070;24.752;2023-12-14T12:00:34;98136.06;;;11.50;100.00
10948;BME280;5526;42.070;24.752;2023-12-14T12:03:10;98145.09;;;10.82;100.00
10948;BME280;5526;42.070;24.752;2023-12-14T12:05:40;98139.16;;;11.00;100.00
10948;BME280;5526;42.070;24.752;2023-12-14T12:08:08;98126.34;;;10.93;100.00
10948;BME280;5526;42.070;24.752;2023-12-14T12:10:36;98129.78;;;10.89;100.00
10948;BME280;5526;42.070;24.752;2023-12-14T12:13:05;98121.97;;;10.79;100.00
10948;BME280;5526;42.070;24.752;2023-12-14T12:15:33;98126.88;;;10.57;100.00
10948;BME280;5526;42.070;24.752;2023-12-14T12:18:03;98126.81;;;10.67;100.00
10948;BME280;5526;42.070;24.752;2023-12-14T12:20:30;98138.38;;;10.66;100.00
10948;BME280;5526;42.070;24.752;2023-12-14T12:22:59;98148.88;;;10.71;100.00
10948;BME280;5526;42.070;24.752;2023-12-14T12:25:26;98135.59;;;10.86;100.00
10948;BME280;5526;42.070;24.752;2023-12-14T12:27:54;98139.69;;;11.02;100.00
10948;BME280;5526;42.070;24.752;2023-12-14T12:30:21;98127.72;;;11.14;100.00
10948;BME280;5526;42.070;24.752;2023-12-14T12:32:48;98138.91;;;11.01;100.00
10948;BME280;5526;42.070;24.752;2023-12-14T12:35:17;98126.13;;;10.85;100.00
10948;BME280;5526;42.070;24.752;2023-12-14T12:37:44;98126.69;;;10.82;100.00
10948;BME280;5526;42.070;24.752;2023-12-14T12:40:13;98122.44;;;10.86;100.00
10948;BME280;5526;42.070;24.752;2023-12-14T12:42:45;98131.41;;;10.85;100.00
10948;BME280;5526;42.070;24.752;2023-12-14T12:45:14;98124.03;;;10.87;100.00
10948;BME280;5526;42.070;24.752;2023-12-14T12:47:42;98145.63;;;10.84;100.00
10948;BME280;5526;42.070;24.752;2023-12-14T12:50:10;98133.44;;;10.93;100.00
10948;BME280;5526;42.070;24.752;2023-12-14T12:52:37;98138.81;;;10.78;100.00
10948;BME280;5526;42.070;24.752;2023-12-14T12:55:05;98140.84;;;10.91;100.00
10948;BME280;5526;42.070;24.752;2023-12-14T12:57:34;98136.25;;;11.01;100.00
10948;BME280;5526;42.070;24.752;2023-12-14T13:00:01;98151.13;;;11.16;100.00